sensor_id;sensor_type;location;lat;lon;timestamp;P1;durP1;ratioP1;P2;durP2;ratioP2
47669;SDS011;33408;52.062;11.722;2024-03-02T00:01:24;53.50;;;37.00;;
47669;SDS011;33408;52.062;11.722;2024-03-02T00:03:52;53.35;;;37.30;;
47669;SDS011;33408;52.062;11.722;2024-03-02T00:06:19;51.92;;;36.70;;
47669;SDS011;33408;52.062;11.722;2024-03-02T00:08:47;54.47;;;39.55;;
47669;SDS011;33408;52.062;11.722;2024-03-02T00:11:14;51.58;;;38.30;;
47669;SDS011;33408;52.062;11.722;2024-03-02T00:13:41;49.28;;;37.85;;
47669;SDS011;33408;52.062;11.722;2024-03-02T00:16:08;57.75;;;39.42;;
47669;SDS011;33408;52.062;11.722;2024-03-02T00:18:35;56.15;;;39.63;;
47669;SDS011;33408;52.062;11.722;2024-03-02T00:21:05;54.47;;;38.88;;
47669;SDS011;33408;52.062;11.722;2024-03-02T00:23:34;56.13;;;39.83;;
47669;SDS011;33408;52.062;11.722;2024-03-02T00:26:01;55.42;;;39.85;;
47669;SDS011;33408;52.062;11.722;2024-03-02T00:28:30;57.47;;;39.75;;
47669;SDS011;33408;52.062;11.722;2024-03-02T00:30:59;56.13;;;38.50;;
47669;SDS011;33408;52.062;11.722;2024-03-02T00:33:30;52.17;;;39.92;;
47669;SDS011;33408;52.062;11.722;2024-03-02T00:35:58;51.60;;;36.80;;
47669;SDS011;33408;52.062;11.722;2024-03-02T00:38:29;53.40;;;37.50;;
47669;SDS011;33408;52.062;11.722;2024-03-02T00:40:58;56.22;;;40.97;;
47669;SDS011;33408;52.062;11.722;2024-03-02T00:46:13;56.03;;;39.05;;
47669;SDS011;33408;52.062;11.722;2024-03-02T00:48:46;55.97;;;39.17;;
47669;SDS011;33408;52.062;11.722;2024-03-02T00:51:17;55.63;;;40.33;;
47669;SDS011;33408;52.062;11.722;2024-03-02T00:53:45;56.78;;;39.85;;
47669;SDS011;33408;52.062;11.722;2024-03-02T00:56:11;56.92;;;39.95;;
47669;SDS011;33408;52.062;11.722;2024-03-02T00:58:38;52.08;;;40.03;;
47669;SDS011;33408;52.062;11.722;2024-03-02T01:01:05;54.97;;;39.45;;
47669;SDS011;33408;52.062;11.722;2024-03-02T01:03:32;49.58;;;36.40;;
47669;SDS011;33408;52.062;11.722;2024-03-02T01:05:59;51.55;;;35.80;;
47669;SDS011;33408;52.062;11.722;2024-03-02T01:08:25;47.33;;;35.47;;
47669;SDS011;33408;52.062;11.722;2024-03-02T01:10:54;49.97;;;36.05;;
47669;SDS011;33408;52.062;11.722;2024-03-02T01:13:21;47.33;;;34.50;;
47669;SDS011;33408;52.062;11.722;2024-03-02T01:15:48;47.50;;;35.25;;
47669;SDS011;33408;52.062;11.722;2024-03-02T01:18:15;47.95;;;35.78;;
47669;SDS011;33408;52.062;11.722;2024-03-02T01:20:41;49.22;;;36.05;;
47669;SDS011;33408;52.062;11.722;2024-03-02T01:23:07;52.28;;;38.15;;
47669;SDS011;33408;52.062;11.722;2024-03-02T01:25:33;53.38;;;38.53;;
47669;SDS011;33408;52.062;11.722;2024-03-02T01:28:03;52.05;;;38.35;;
47669;SDS011;33408;52.062;11.722;2024-03-02T01:30:30;52.95;;;38.63;;
47669;SDS011;33408;52.062;11.722;2024-03-02T01:32:57;60.00;;;39.92;;
47669;SDS011;33408;52.062;11.722;2024-03-02T01:35:24;58.92;;;40.13;;
47669;SDS011;33408;52.062;11.722;2024-03-02T01:37:51;55.67;;;40.40;;
47669;SDS011;33408;52.062;11.722;2024-03-02T01:40:18;56.08;;;39.35;;
47669;SDS011;33408;52.062;11.722;2024-03-02T01:42:45;51.53;;;37.65;;
47669;SDS011;33408;52.062;11.722;2024-03-02T01:45:13;52.40;;;37.45;;
47669;SDS011;33408;52.062;11.722;2024-03-02T01:47:40;52.55;;;36.65;;
47669;SDS011;33408;52.062;11.722;2024-03-02T01:50:06;49.88;;;35.72;;
47669;SDS011;33408;52.062;11.722;2024-03-02T01:52:34;49.90;;;34.72;;
47669;SDS011;33408;52.062;11.722;2024-03-02T01:55:01;48.40;;;37.40;;
47669;SDS011;33408;52.062;11.722;2024-03-02T01:57:28;52.70;;;38.00;;
47669;SDS011;33408;52.062;11.722;2024-03-02T01:59:55;58.17;;;39.40;;
47669;SDS011;33408;52.062;11.722;2024-03-02T02:02:24;51.33;;;37.88;;
47669;SDS011;33408;52.062;11.722;2024-03-02T02:04:50;53.08;;;38.08;;
47669;SDS011;33408;52.062;11.722;2024-03-02T02:07:17;54.75;;;37.33;;
47669;SDS011;33408;52.062;11.722;2024-03-02T02:09:44;50.72;;;37.03;;
47669;SDS011;33408;52.062;11.722;2024-03-02T02:12:10;49.25;;;36.45;;
47669;SDS011;33408;52.062;11.722;2024-03-02T02:14:37;53.50;;;38.90;;
47669;SDS011;33408;52.062;11.722;2024-03-02T02:17:05;52.97;;;37.28;;
47669;SDS011;33408;52.062;11.722;2024-03-02T02:19:33;52.30;;;38.50;;
47669;SDS011;33408;52.062;11.722;2024-03-02T02:22:00;53.15;;;38.13;;
47669;SDS011;33408;52.062;11.722;2024-03-02T02:24:27;53.72;;;39.50;;
47669;SDS011;33408;52.062;11.722;2024-03-02T02:26:56;54.67;;;39.30;;
47669;SDS011;33408;52.062;11.722;2024-03-02T02:29:23;62.42;;;41.53;;
47669;SDS011;33408;52.062;11.722;2024-03-02T02:31:50;59.05;;;43.03;;
47669;SDS011;33408;52.062;11.722;2024-03-02T02:34:16;56.72;;;42.58;;
47669;SDS011;33408;52.062;11.722;2024-03-02T02:36:43;61.75;;;43.13;;
47669;SDS011;33408;52.062;11.722;2024-03-02T02:39:12;65.07;;;44.65;;
47669;SDS011;33408;52.062;11.722;2024-03-02T02:41:40;64.45;;;43.30;;
47669;SDS011;33408;52.062;11.722;2024-03-02T02:44:07;58.83;;;44.42;;
47669;SDS011;33408;52.062;11.722;2024-03-02T02:46:36;58.10;;;43.38;;
47669;SDS011;33408;52.062;11.722;2024-03-02T02:49:03;62.22;;;43.60;;
47669;SDS011;33408;52.062;11.722;2024-03-02T02:51:30;59.42;;;43.67;;
47669;SDS011;33408;52.062;11.722;2024-03-02T02:53:57;62.35;;;45.63;;
47669;SDS011;33408;52.062;11.722;2024-03-02T02:56:25;57.38;;;41.53;;
47669;SDS011;33408;52.062;11.722;2024-03-02T02:58:51;65.68;;;43.65;;
47669;SDS011;33408;52.062;11.722;2024-03-02T03:01:18;60.65;;;46.08;;
47669;SDS011;33408;52.062;11.722;2024-03-02T03:03:44;60.63;;;42.40;;
47669;SDS011;33408;52.062;11.722;2024-03-02T03:06:12;60.85;;;42.65;;
47669;SDS011;33408;52.062;11.722;2024-03-02T03:08:38;54.17;;;41.35;;
47669;SDS011;33408;52.062;11.722;2024-03-02T03:11:05;58.33;;;41.72;;
47669;SDS011;33408;52.062;11.722;2024-03-02T03:13:33;64.97;;;44.58;;
47669;SDS011;33408;52.062;11.722;2024-03-02T03:16:00;59.38;;;41.28;;
47669;SDS011;33408;52.062;11.722;2024-03-02T03:18:26;63.78;;;43.65;;
47669;SDS011;33408;52.062;11.722;2024-03-02T03:20:53;56.22;;;42.85;;
47669;SDS011;33408;52.062;11.722;2024-03-02T03:23:20;59.30;;;42.70;;
47669;SDS011;33408;52.062;11.722;2024-03-02T03:25:46;60.30;;;43.88;;
47669;SDS011;33408;52.062;11.722;2024-03-02T03:28:13;60.40;;;42.28;;
47669;SDS011;33408;52.062;11.722;2024-03-02T03:30:41;57.00;;;42.03;;
47669;SDS011;33408;52.062;11.722;2024-03-02T03:33:08;59.10;;;42.53;;
47669;SDS011;33408;52.062;11.722;2024-03-02T03:35:34;61.60;;;44.20;;
47669;SDS011;33408;52.062;11.722;2024-03-02T03:38:02;57.88;;;41.70;;
47669;SDS011;33408;52.062;11.722;2024-03-02T03:40:29;58.78;;;42.65;;
47669;SDS011;33408;52.062;11.722;2024-03-02T03:42:55;60.03;;;43.17;;
47669;SDS011;33408;52.062;11.722;2024-03-02T03:45:22;57.17;;;43.00;;
47669;SDS011;33408;52.062;11.722;2024-03-02T03:47:52;57.63;;;43.53;;
47669;SDS011;33408;52.062;11.722;2024-03-02T03:50:19;60.80;;;43.17;;
47669;SDS011;33408;52.062;11.722;2024-03-02T03:52:45;57.92;;;42.25;;
47669;SDS011;33408;52.062;11.722;2024-03-02T03:55:12;60.90;;;42.83;;
47669;SDS011;33408;52.062;11.722;2024-03-02T03:57:38;64.13;;;45.92;;
47669;SDS011;33408;52.062;11.722;2024-03-02T04:00:06;57.67;;;43.30;;
47669;SDS011;33408;52.062;11.722;2024-03-02T04:02:35;58.53;;;43.47;;
47669;SDS011;33408;52.062;11.722;2024-03-02T04:05:03;60.85;;;41.78;;
47669;SDS011;33408;52.062;11.722;2024-03-02T04:07:33;60.38;;;41.83;;
47669;SDS011;33408;52.062;11.722;2024-03-02T04:10:05;55.80;;;40.78;;
47669;SDS011;33408;52.062;11.722;2024-03-02T04:12:33;55.22;;;41.47;;
47669;SDS011;33408;52.062;11.722;2024-03-02T04:15:00;57.50;;;41.20;;
47669;SDS011;33408;52.062;11.722;2024-03-02T04:17:29;53.92;;;41.22;;
47669;SDS011;33408;52.062;11.722;2024-03-02T04:19:55;57.38;;;41.33;;
47669;SDS011;33408;52.062;11.722;2024-03-02T04:22:23;56.88;;;40.10;;
47669;SDS011;33408;52.062;11.722;2024-03-02T04:24:50;58.78;;;41.05;;
47669;SDS011;33408;52.062;11.722;2024-03-02T04:27:16;54.97;;;40.17;;
47669;SDS011;33408;52.062;11.722;2024-03-02T04:29:43;53.88;;;40.10;;
47669;SDS011;33408;52.062;11.722;2024-03-02T04:32:09;54.72;;;40.22;;
47669;SDS011;33408;52.062;11.722;2024-03-02T04:34:36;53.97;;;39.72;;
47669;SDS011;33408;52.062;11.722;2024-03-02T04:37:03;53.80;;;40.45;;
47669;SDS011;33408;52.062;11.722;2024-03-02T04:39:31;61.80;;;40.50;;
47669;SDS011;33408;52.062;11.722;2024-03-02T04:41:57;53.22;;;41.17;;
47669;SDS011;33408;52.062;11.722;2024-03-02T04:44:24;54.55;;;41.33;;
47669;SDS011;33408;52.062;11.722;2024-03-02T04:46:50;55.28;;;40.35;;
47669;SDS011;33408;52.062;11.722;2024-03-02T04:49:17;54.85;;;39.55;;
47669;SDS011;33408;52.062;11.722;2024-03-02T04:51:43;62.38;;;42.00;;
47669;SDS011;33408;52.062;11.722;2024-03-02T04:54:10;56.20;;;40.65;;
47669;SDS011;33408;52.062;11.722;2024-03-02T04:56:40;58.80;;;41.97;;
47669;SDS011;33408;52.062;11.722;2024-03-02T04:59:09;56.78;;;41.72;;
47669;SDS011;33408;52.062;11.722;2024-03-02T05:01:36;62.20;;;43.15;;
47669;SDS011;33408;52.062;11.722;2024-03-02T05:04:03;58.25;;;41.03;;
47669;SDS011;33408;52.062;11.722;2024-03-02T05:06:30;58.13;;;42.80;;
47669;SDS011;33408;52.062;11.722;2024-03-02T05:08:56;57.83;;;41.17;;
47669;SDS011;33408;52.062;11.722;2024-03-02T05:11:23;58.22;;;43.97;;
47669;SDS011;33408;52.062;11.722;2024-03-02T05:14:15;59.22;;;42.05;;
47669;SDS011;33408;52.062;11.722;2024-03-02T05:16:41;73.97;;;52.28;;
47669;SDS011;33408;52.062;11.722;2024-03-02T05:19:08;64.75;;;49.47;;
47669;SDS011;33408;52.062;11.722;2024-03-02T05:21:34;62.25;;;45.00;;
47669;SDS011;33408;52.062;11.722;2024-03-02T05:24:01;60.85;;;41.45;;
47669;SDS011;33408;52.062;11.722;2024-03-02T05:26:28;55.22;;;41.08;;
47669;SDS011;33408;52.062;11.722;2024-03-02T05:28:54;57.20;;;42.60;;
47669;SDS011;33408;52.062;11.722;2024-03-02T05:31:22;54.20;;;41.20;;
47669;SDS011;33408;52.062;11.722;2024-03-02T05:33:49;56.15;;;42.45;;
47669;SDS011;33408;52.062;11.722;2024-03-02T05:36:15;57.03;;;41.10;;
47669;SDS011;33408;52.062;11.722;2024-03-02T05:38:42;54.95;;;41.78;;
47669;SDS011;33408;52.062;11.722;2024-03-02T05:41:09;53.45;;;39.92;;
47669;SDS011;33408;52.062;11.722;2024-03-02T05:43:36;53.15;;;39.42;;
47669;SDS011;33408;52.062;11.722;2024-03-02T05:46:03;54.90;;;40.55;;
47669;SDS011;33408;52.062;11.722;2024-03-02T05:48:31;56.40;;;40.05;;
47669;SDS011;33408;52.062;11.722;2024-03-02T05:50:57;56.92;;;40.90;;
47669;SDS011;33408;52.062;11.722;2024-03-02T05:53:24;50.33;;;39.65;;
47669;SDS011;33408;52.062;11.722;2024-03-02T05:55:50;54.72;;;41.50;;
47669;SDS011;33408;52.062;11.722;2024-03-02T05:58:20;56.20;;;42.00;;
47669;SDS011;33408;52.062;11.722;2024-03-02T06:00:57;51.83;;;39.63;;
47669;SDS011;33408;52.062;11.722;2024-03-02T06:03:24;62.25;;;43.42;;
47669;SDS011;33408;52.062;11.722;2024-03-02T06:05:52;53.00;;;39.88;;
47669;SDS011;33408;52.062;11.722;2024-03-02T06:08:19;71.72;;;58.50;;
47669;SDS011;33408;52.062;11.722;2024-03-02T06:10:45;59.03;;;46.08;;
47669;SDS011;33408;52.062;11.722;2024-03-02T06:13:12;57.00;;;45.25;;
47669;SDS011;33408;52.062;11.722;2024-03-02T06:15:38;56.78;;;40.42;;
47669;SDS011;33408;52.062;11.722;2024-03-02T06:18:05;60.92;;;43.40;;
47669;SDS011;33408;52.062;11.722;2024-03-02T06:20:33;57.70;;;40.33;;
47669;SDS011;33408;52.062;11.722;2024-03-02T06:23:01;51.15;;;39.20;;
47669;SDS011;33408;52.062;11.722;2024-03-02T06:25:28;61.03;;;42.25;;
47669;SDS011;33408;52.062;11.722;2024-03-02T06:27:54;63.08;;;42.45;;
47669;SDS011;33408;52.062;11.722;2024-03-02T06:30:21;54.03;;;40.60;;
47669;SDS011;33408;52.062;11.722;2024-03-02T06:32:47;56.92;;;39.83;;
47669;SDS011;33408;52.062;11.722;2024-03-02T06:35:14;55.67;;;41.92;;
47669;SDS011;33408;52.062;11.722;2024-03-02T06:37:40;55.10;;;40.38;;
47669;SDS011;33408;52.062;11.722;2024-03-02T06:40:09;54.58;;;40.78;;
47669;SDS011;33408;52.062;11.722;2024-03-02T06:42:36;56.10;;;40.75;;
47669;SDS011;33408;52.062;11.722;2024-03-02T06:45:02;56.80;;;40.38;;
47669;SDS011;33408;52.062;11.722;2024-03-02T06:47:29;54.38;;;41.33;;
47669;SDS011;33408;52.062;11.722;2024-03-02T06:49:56;52.13;;;39.35;;
47669;SDS011;33408;52.062;11.722;2024-03-02T06:52:23;56.65;;;40.70;;
47669;SDS011;33408;52.062;11.722;2024-03-02T06:54:50;54.28;;;39.47;;
47669;SDS011;33408;52.062;11.722;2024-03-02T06:57:18;53.63;;;39.80;;
47669;SDS011;33408;52.062;11.722;2024-03-02T06:59:45;56.75;;;40.38;;
47669;SDS011;33408;52.062;11.722;2024-03-02T07:02:12;53.35;;;40.33;;
47669;SDS011;33408;52.062;11.722;2024-03-02T07:04:39;59.20;;;42.60;;
47669;SDS011;33408;52.062;11.722;2024-03-02T07:07:05;52.80;;;39.97;;
47669;SDS011;33408;52.062;11.722;2024-03-02T07:09:32;52.97;;;40.53;;
47669;SDS011;33408;52.062;11.722;2024-03-02T07:11:58;50.88;;;40.28;;
47669;SDS011;33408;52.062;11.722;2024-03-02T07:14:27;55.15;;;39.40;;
47669;SDS011;33408;52.062;11.722;2024-03-02T07:17:15;48.47;;;39.90;;
47669;SDS011;33408;52.062;11.722;2024-03-02T07:19:41;58.17;;;39.92;;
47669;SDS011;33408;52.062;11.722;2024-03-02T07:22:08;47.85;;;37.60;;
47669;SDS011;33408;52.062;11.722;2024-03-02T07:24:39;50.72;;;37.47;;
47669;SDS011;33408;52.062;11.722;2024-03-02T07:27:07;47.65;;;38.67;;
47669;SDS011;33408;52.062;11.722;2024-03-02T07:29:35;46.70;;;36.92;;
47669;SDS011;33408;52.062;11.722;2024-03-02T07:32:02;48.58;;;36.35;;
47669;SDS011;33408;52.062;11.722;2024-03-02T07:34:30;49.90;;;37.05;;
47669;SDS011;33408;52.062;11.722;2024-03-02T07:36:57;52.65;;;37.67;;
47669;SDS011;33408;52.062;11.722;2024-03-02T07:39:24;45.95;;;35.05;;
47669;SDS011;33408;52.062;11.722;2024-03-02T07:41:51;48.85;;;37.70;;
47669;SDS011;33408;52.062;11.722;2024-03-02T07:44:18;48.28;;;35.90;;
47669;SDS011;33408;52.062;11.722;2024-03-02T07:46:46;45.30;;;35.05;;
47669;SDS011;33408;52.062;11.722;2024-03-02T07:49:14;47.75;;;36.58;;
47669;SDS011;33408;52.062;11.722;2024-03-02T07:51:42;47.65;;;36.00;;
47669;SDS011;33408;52.062;11.722;2024-03-02T07:54:09;48.33;;;38.00;;
47669;SDS011;33408;52.062;11.722;2024-03-02T07:56:36;46.00;;;36.38;;
47669;SDS011;33408;52.062;11.722;2024-03-02T07:59:03;46.17;;;36.75;;
47669;SDS011;33408;52.062;11.722;2024-03-02T08:01:30;45.63;;;35.97;;
47669;SDS011;33408;52.062;11.722;2024-03-02T08:04:00;50.47;;;37.47;;
47669;SDS011;33408;52.062;11.722;2024-03-02T08:06:29;47.13;;;35.28;;
47669;SDS011;33408;52.062;11.722;2024-03-02T08:08:56;43.85;;;33.55;;
47669;SDS011;33408;52.062;11.722;2024-03-02T08:11:24;44.47;;;35.70;;
47669;SDS011;33408;52.062;11.722;2024-03-02T08:13:52;45.30;;;36.65;;
47669;SDS011;33408;52.062;11.722;2024-03-02T08:16:20;45.58;;;35.75;;
47669;SDS011;33408;52.062;11.722;2024-03-02T08:18:49;46.83;;;36.03;;
47669;SDS011;33408;52.062;11.722;2024-03-02T08:21:17;47.40;;;35.55;;
47669;SDS011;33408;52.062;11.722;2024-03-02T08:23:44;42.25;;;33.95;;
47669;SDS011;33408;52.062;11.722;2024-03-02T08:26:11;46.13;;;36.20;;
47669;SDS011;33408;52.062;11.722;2024-03-02T08:28:38;44.03;;;34.53;;
47669;SDS011;33408;52.062;11.722;2024-03-02T08:31:05;47.45;;;35.67;;
47669;SDS011;33408;52.062;11.722;2024-03-02T08:33:32;44.90;;;34.47;;
47669;SDS011;33408;52.062;11.722;2024-03-02T08:35:59;40.97;;;33.13;;
47669;SDS011;33408;52.062;11.722;2024-03-02T08:38:28;39.85;;;33.05;;
47669;SDS011;33408;52.062;11.722;2024-03-02T08:40:54;40.40;;;33.10;;
47669;SDS011;33408;52.062;11.722;2024-03-02T08:43:21;45.00;;;33.90;;
47669;SDS011;33408;52.062;11.722;2024-03-02T08:45:48;42.15;;;32.72;;
47669;SDS011;33408;52.062;11.722;2024-03-02T08:48:15;41.67;;;32.50;;
47669;SDS011;33408;52.062;11.722;2024-03-02T08:50:42;41.53;;;33.55;;
47669;SDS011;33408;52.062;11.722;2024-03-02T08:53:09;36.50;;;30.85;;
47669;SDS011;33408;52.062;11.722;2024-03-02T08:55:37;39.90;;;31.08;;
47669;SDS011;33408;52.062;11.722;2024-03-02T08:58:04;37.10;;;30.13;;
47669;SDS011;33408;52.062;11.722;2024-03-02T09:00:31;40.15;;;29.73;;
47669;SDS011;33408;52.062;11.722;2024-03-02T09:02:58;35.15;;;28.27;;
47669;SDS011;33408;52.062;11.722;2024-03-02T09:05:24;34.13;;;28.75;;
47669;SDS011;33408;52.062;11.722;2024-03-02T09:07:51;31.88;;;26.00;;
47669;SDS011;33408;52.062;11.722;2024-03-02T09:10:18;33.65;;;27.08;;
47669;SDS011;33408;52.062;11.722;2024-03-02T09:12:48;34.72;;;27.83;;
47669;SDS011;33408;52.062;11.722;2024-03-02T09:15:15;32.88;;;28.85;;
47669;SDS011;33408;52.062;11.722;2024-03-02T09:17:42;42.33;;;35.25;;
47669;SDS011;33408;52.062;11.722;2024-03-02T09:20:10;35.97;;;29.85;;
47669;SDS011;33408;52.062;11.722;2024-03-02T09:22:37;38.60;;;30.75;;
47669;SDS011;33408;52.062;11.722;2024-03-02T09:25:04;35.42;;;27.90;;
47669;SDS011;33408;52.062;11.722;2024-03-02T09:27:32;35.90;;;29.48;;
47669;SDS011;33408;52.062;11.722;2024-03-02T09:30:00;45.90;;;35.58;;
47669;SDS011;33408;52.062;11.722;2024-03-02T09:32:27;32.55;;;27.80;;
47669;SDS011;33408;52.062;11.722;2024-03-02T09:34:53;31.65;;;25.63;;
47669;SDS011;33408;52.062;11.722;2024-03-02T09:37:21;37.28;;;27.48;;
47669;SDS011;33408;52.062;11.722;2024-03-02T09:39:47;69.90;;;28.45;;
47669;SDS011;33408;52.062;11.722;2024-03-02T09:42:14;52.85;;;27.38;;
47669;SDS011;33408;52.062;11.722;2024-03-02T09:44:41;35.22;;;26.02;;
47669;SDS011;33408;52.062;11.722;2024-03-02T09:47:10;37.20;;;29.38;;
47669;SDS011;33408;52.062;11.722;2024-03-02T09:49:36;31.02;;;24.73;;
47669;SDS011;33408;52.062;11.722;2024-03-02T09:52:03;33.08;;;25.98;;
47669;SDS011;33408;52.062;11.722;2024-03-02T09:54:32;30.65;;;25.52;;
47669;SDS011;33408;52.062;11.722;2024-03-02T09:56:59;99.53;;;33.05;;
47669;SDS011;33408;52.062;11.722;2024-03-02T09:59:26;41.10;;;27.10;;
47669;SDS011;33408;52.062;11.722;2024-03-02T10:01:57;378.08;;;61.15;;
47669;SDS011;33408;52.062;11.722;2024-03-02T10:04:26;58.97;;;26.80;;
47669;SDS011;33408;52.062;11.722;2024-03-02T10:07:09;41.33;;;26.13;;
47669;SDS011;33408;52.062;11.722;2024-03-02T10:09:39;44.75;;;26.13;;
47669;SDS011;33408;52.062;11.722;2024-03-02T10:12:07;31.20;;;24.20;;
47669;SDS011;33408;52.062;11.722;2024-03-02T10:14:36;29.20;;;24.17;;
47669;SDS011;33408;52.062;11.722;2024-03-02T10:17:04;34.15;;;25.25;;
47669;SDS011;33408;52.062;11.722;2024-03-02T10:19:33;33.47;;;26.15;;
47669;SDS011;33408;52.062;11.722;2024-03-02T10:22:00;34.10;;;26.75;;
47669;SDS011;33408;52.062;11.722;2024-03-02T10:24:28;31.95;;;27.20;;
47669;SDS011;33408;52.062;11.722;2024-03-02T10:27:06;31.67;;;26.38;;
47669;SDS011;33408;52.062;11.722;2024-03-02T10:29:36;31.52;;;25.35;;
47669;SDS011;33408;52.062;11.722;2024-03-02T10:32:04;34.90;;;27.73;;
47669;SDS011;33408;52.062;11.722;2024-03-02T10:34:33;31.58;;;26.40;;
47669;SDS011;33408;52.062;11.722;2024-03-02T10:36:59;35.30;;;27.77;;
47669;SDS011;33408;52.062;11.722;2024-03-02T10:39:26;32.05;;;27.42;;
47669;SDS011;33408;52.062;11.722;2024-03-02T10:41:54;36.22;;;27.60;;
47669;SDS011;33408;52.062;11.722;2024-03-02T10:44:22;33.15;;;27.42;;
47669;SDS011;33408;52.062;11.722;2024-03-02T10:46:51;34.67;;;27.02;;
47669;SDS011;33408;52.062;11.722;2024-03-02T10:49:19;34.15;;;28.00;;
47669;SDS011;33408;52.062;11.722;2024-03-02T10:51:50;32.65;;;27.58;;
47669;SDS011;33408;52.062;11.722;2024-03-02T10:54:16;35.70;;;28.15;;
47669;SDS011;33408;52.062;11.722;2024-03-02T10:56:50;32.55;;;26.85;;
47669;SDS011;33408;52.062;11.722;2024-03-02T10:59:22;37.00;;;28.17;;
47669;SDS011;33408;52.062;11.722;2024-03-02T11:01:53;32.78;;;26.40;;
47669;SDS011;33408;52.062;11.722;2024-03-02T11:04:22;34.38;;;26.92;;
47669;SDS011;33408;52.062;11.722;2024-03-02T11:06:54;35.67;;;25.63;;
47669;SDS011;33408;52.062;11.722;2024-03-02T11:09:26;32.58;;;28.00;;
47669;SDS011;33408;52.062;11.722;2024-03-02T11:11:56;35.13;;;28.65;;
47669;SDS011;33408;52.062;11.722;2024-03-02T11:14:29;35.17;;;26.63;;
47669;SDS011;33408;52.062;11.722;2024-03-02T11:16:58;33.33;;;26.70;;
47669;SDS011;33408;52.062;11.722;2024-03-02T11:19:25;33.63;;;27.88;;
47669;SDS011;33408;52.062;11.722;2024-03-02T11:21:54;31.23;;;25.20;;
47669;SDS011;33408;52.062;11.722;2024-03-02T11:24:28;32.30;;;25.85;;
47669;SDS011;33408;52.062;11.722;2024-03-02T11:27:02;33.35;;;26.50;;
47669;SDS011;33408;52.062;11.722;2024-03-02T11:29:44;37.13;;;27.52;;
47669;SDS011;33408;52.062;11.722;2024-03-02T11:32:16;36.55;;;27.40;;
47669;SDS011;33408;52.062;11.722;2024-03-02T11:34:44;31.90;;;26.33;;
47669;SDS011;33408;52.062;11.722;2024-03-02T11:37:15;31.13;;;25.88;;
47669;SDS011;33408;52.062;11.722;2024-03-02T11:39:43;32.97;;;25.60;;
47669;SDS011;33408;52.062;11.722;2024-03-02T11:42:11;27.52;;;23.55;;
47669;SDS011;33408;52.062;11.722;2024-03-02T11:44:41;28.60;;;24.23;;
47669;SDS011;33408;52.062;11.722;2024-03-02T11:47:10;30.30;;;25.27;;
47669;SDS011;33408;52.062;11.722;2024-03-02T11:49:40;165.52;;;49.25;;
47669;SDS011;33408;52.062;11.722;2024-03-02T11:52:11;191.55;;;46.28;;
47669;SDS011;33408;52.062;11.722;2024-03-02T11:54:40;41.83;;;23.90;;
47669;SDS011;33408;52.062;11.722;2024-03-02T11:57:11;43.42;;;24.85;;
47669;SDS011;33408;52.062;11.722;2024-03-02T11:59:39;71.65;;;24.70;;
47669;SDS011;33408;52.062;11.722;2024-03-02T12:02:06;33.10;;;21.83;;
47669;SDS011;33408;52.062;11.722;2024-03-02T12:04:40;25.52;;;19.98;;
47669;SDS011;33408;52.062;11.722;2024-03-02T12:07:08;181.13;;;42.28;;
47669;SDS011;33408;52.062;11.722;2024-03-02T12:09:35;33.72;;;25.00;;
47669;SDS011;33408;52.062;11.722;2024-03-02T12:12:04;111.20;;;31.73;;
47669;SDS011;33408;52.062;11.722;2024-03-02T12:14:32;57.45;;;23.92;;
47669;SDS011;33408;52.062;11.722;2024-03-02T12:16:59;141.45;;;34.42;;
47669;SDS011;33408;52.062;11.722;2024-03-02T12:19:26;32.72;;;23.52;;
47669;SDS011;33408;52.062;11.722;2024-03-02T12:21:55;47.45;;;23.27;;
47669;SDS011;33408;52.062;11.722;2024-03-02T12:24:22;33.22;;;24.85;;
47669;SDS011;33408;52.062;11.722;2024-03-02T12:26:50;68.85;;;25.98;;
47669;SDS011;33408;52.062;11.722;2024-03-02T12:29:20;45.70;;;23.40;;
47669;SDS011;33408;52.062;11.722;2024-03-02T12:31:47;44.40;;;23.80;;
47669;SDS011;33408;52.062;11.722;2024-03-02T12:34:15;69.93;;;27.02;;
47669;SDS011;33408;52.062;11.722;2024-03-02T12:36:42;26.63;;;21.48;;
47669;SDS011;33408;52.062;11.722;2024-03-02T12:39:13;28.73;;;22.20;;
47669;SDS011;33408;52.062;11.722;2024-03-02T12:41:41;26.40;;;22.42;;
47669;SDS011;33408;52.062;11.722;2024-03-02T12:44:08;39.78;;;22.77;;
47669;SDS011;33408;52.062;11.722;2024-03-02T12:46:36;27.10;;;21.65;;
47669;SDS011;33408;52.062;11.722;2024-03-02T12:49:07;33.38;;;20.45;;
47669;SDS011;33408;52.062;11.722;2024-03-02T12:51:36;23.98;;;20.65;;
47669;SDS011;33408;52.062;11.722;2024-03-02T12:54:05;27.33;;;20.33;;
47669;SDS011;33408;52.062;11.722;2024-03-02T12:56:32;25.17;;;19.65;;
47669;SDS011;33408;52.062;11.722;2024-03-02T12:58:59;28.92;;;19.52;;
47669;SDS011;33408;52.062;11.722;2024-03-02T13:01:26;25.40;;;20.08;;
47669;SDS011;33408;52.062;11.722;2024-03-02T13:03:54;24.80;;;19.98;;
47669;SDS011;33408;52.062;11.722;2024-03-02T13:06:22;24.73;;;20.33;;
47669;SDS011;33408;52.062;11.722;2024-03-02T13:08:49;28.23;;;21.08;;
47669;SDS011;33408;52.062;11.722;2024-03-02T13:11:16;23.98;;;19.52;;
47669;SDS011;33408;52.062;11.722;2024-03-02T13:13:42;28.23;;;20.85;;
47669;SDS011;33408;52.062;11.722;2024-03-02T13:16:09;27.73;;;20.52;;
47669;SDS011;33408;52.062;11.722;2024-03-02T13:18:36;147.57;;;33.78;;
47669;SDS011;33408;52.062;11.722;2024-03-02T13:21:04;24.77;;;19.95;;
47669;SDS011;33408;52.062;11.722;2024-03-02T13:23:31;25.00;;;19.40;;
47669;SDS011;33408;52.062;11.722;2024-03-02T13:25:58;26.50;;;18.77;;
47669;SDS011;33408;52.062;11.722;2024-03-02T13:28:25;45.67;;;19.48;;
47669;SDS011;33408;52.062;11.722;2024-03-02T13:30:52;30.33;;;18.75;;
47669;SDS011;33408;52.062;11.722;2024-03-02T13:33:18;31.60;;;20.15;;
47669;SDS011;33408;52.062;11.722;2024-03-02T13:35:47;30.90;;;18.30;;
47669;SDS011;33408;52.062;11.722;2024-03-02T13:38:16;24.25;;;17.15;;
47669;SDS011;33408;52.062;11.722;2024-03-02T13:40:42;41.08;;;18.75;;
47669;SDS011;33408;52.062;11.722;2024-03-02T13:43:09;276.23;;;42.10;;
47669;SDS011;33408;52.062;11.722;2024-03-02T13:45:36;46.70;;;19.42;;
47669;SDS011;33408;52.062;11.722;2024-03-02T13:48:03;133.45;;;29.52;;
47669;SDS011;33408;52.062;11.722;2024-03-02T13:50:30;373.13;;;49.25;;
47669;SDS011;33408;52.062;11.722;2024-03-02T13:52:58;196.55;;;32.65;;
47669;SDS011;33408;52.062;11.722;2024-03-02T13:55:29;305.17;;;41.80;;
47669;SDS011;33408;52.062;11.722;2024-03-02T13:57:56;199.50;;;37.15;;
47669;SDS011;33408;52.062;11.722;2024-03-02T14:00:23;57.17;;;20.10;;
47669;SDS011;33408;52.062;11.722;2024-03-02T14:02:50;21.52;;;16.77;;
47669;SDS011;33408;52.062;11.722;2024-03-02T14:05:17;166.13;;;32.75;;
47669;SDS011;33408;52.062;11.722;2024-03-02T14:07:44;128.45;;;27.23;;
47669;SDS011;33408;52.062;11.722;2024-03-02T14:10:11;538.42;;;68.85;;
47669;SDS011;33408;52.062;11.722;2024-03-02T14:12:40;29.92;;;18.02;;
47669;SDS011;33408;52.062;11.722;2024-03-02T14:15:07;230.27;;;36.00;;